sensor_id;sensor_type;location;lat;lon;timestamp;temperature;humidity
14008;DHT22;61651;45.508;12.232;2023-01-01T00:02:43;13.10;99.90
14008;DHT22;61651;45.508;12.232;2023-01-01T00:05:45;13.10;99.90
14008;DHT22;61651;45.508;12.232;2023-01-01T00:08:47;13.10;99.90
14008;DHT22;61651;45.508;12.232;2023-01-01T00:12:10;13.10;99.90
14008;DHT22;61651;45.508;12.232;2023-01-01T00:15:13;13.10;99.90
14008;DHT22;61651;45.508;12.232;2023-01-01T00:18:15;13.10;99.90
14008;DHT22;61651;45.508;12.232;2023-01-01T00:21:17;13.00;99.90
14008;DHT22;61651;45.508;12.232;2023-01-01T00:24:19;13.00;99.90
14008;DHT22;61651;45.508;12.232;2023-01-01T00:27:21;12.90;99.90
14008;DHT22;61651;45.508;12.232;2023-01-01T00:30:25;13.00;99.90
14008;DHT22;61651;45.508;12.232;2023-01-01T00:33:27;12.90;99.90
14008;DHT22;61651;45.508;12.232;2023-01-01T00:36:29;13.00;99.90
14008;DHT22;61651;45.508;12.232;2023-01-01T00:39:31;13.00;99.90
14008;DHT22;61651;45.508;12.232;2023-01-01T00:42:33;13.00;99.90
14008;DHT22;61651;45.508;12.232;2023-01-01T00:45:42;13.00;99.90
14008;DHT22;61651;45.508;12.232;2023-01-01T00:48:47;13.00;99.90
14008;DHT22;61651;45.508;12.232;2023-01-01T00:51:49;13.00;99.90
14008;DHT22;61651;45.508;12.232;2023-01-01T00:54:51;12.90;99.90
14008;DHT22;61651;45.508;12.232;2023-01-01T00:57:53;12.80;99.90
14008;DHT22;61651;45.508;12.232;2023-01-01T01:00:57;12.60;99.90
14008;DHT22;61651;45.508;12.232;2023-01-01T01:03:59;12.60;99.90
14008;DHT22;61651;45.508;12.232;2023-01-01T01:07:02;12.70;99.90
14008;DHT22;61651;45.508;12.232;2023-01-01T01:10:05;12.80;99.90
14008;DHT22;61651;45.508;12.232;2023-01-01T01:13:07;12.90;99.90
14008;DHT22;61651;45.508;12.232;2023-01-01T01:16:13;12.90;99.90
14008;DHT22;61651;45.508;12.232;2023-01-01T01:19:15;12.90;99.90
14008;DHT22;61651;45.508;12.232;2023-01-01T01:22:18;12.90;99.90
14008;DHT22;61651;45.508;12.232;2023-01-01T01:25:20;12.90;99.90
14008;DHT22;61651;45.508;12.232;2023-01-01T01:28:22;12.90;99.90
14008;DHT22;61651;45.508;12.232;2023-01-01T01:31:28;12.70;99.90
14008;DHT22;61651;45.508;12.232;2023-01-01T01:34:30;12.70;99.90
14008;DHT22;61651;45.508;12.232;2023-01-01T01:37:32;12.80;99.90
14008;DHT22;61651;45.508;12.232;2023-01-01T01:40:34;12.90;99.90
14008;DHT22;61651;45.508;12.232;2023-01-01T01:43:54;12.90;99.90
14008;DHT22;61651;45.508;12.232;2023-01-01T01:46:58;12.90;99.90
14008;DHT22;61651;45.508;12.232;2023-01-01T01:50:05;13.00;99.90
14008;DHT22;61651;45.508;12.232;2023-01-01T01:53:09;13.00;99.90
14008;DHT22;61651;45.508;12.232;2023-01-01T01:56:16;12.90;99.90
14008;DHT22;61651;45.508;12.232;2023-01-01T01:59:21;12.80;99.90
14008;DHT22;61651;45.508;12.232;2023-01-01T02:02:33;12.60;99.90
14008;DHT22;61651;45.508;12.232;2023-01-01T02:05:36;12.50;99.90
14008;DHT22;61651;45.508;12.232;2023-01-01T02:08:39;12.30;99.90
14008;DHT22;61651;45.508;12.232;2023-01-01T02:11:41;12.30;99.90
14008;DHT22;61651;45.508;12.232;2023-01-01T02:14:43;12.20;99.90
14008;DHT22;61651;45.508;12.232;2023-01-01T02:17:53;12.30;99.90
14008;DHT22;61651;45.508;12.232;2023-01-01T02:21:02;12.30;99.90
14008;DHT22;61651;45.508;12.232;2023-01-01T02:24:18;12.30;99.90
14008;DHT22;61651;45.508;12.232;2023-01-01T02:27:30;12.30;99.90
14008;DHT22;61651;45.508;12.232;2023-01-01T02:30:38;12.30;99.90
14008;DHT22;61651;45.508;12.232;2023-01-01T02:33:43;12.10;99.90
14008;DHT22;61651;45.508;12.232;2023-01-01T02:36:50;12.10;99.90
14008;DHT22;61651;45.508;12.232;2023-01-01T02:39:54;12.10;99.90
14008;DHT22;61651;45.508;12.232;2023-01-01T02:42:58;12.00;99.90
14008;DHT22;61651;45.508;12.232;2023-01-01T02:46:04;12.00;99.90
14008;DHT22;61651;45.508;12.232;2023-01-01T02:49:08;12.10;99.90
14008;DHT22;61651;45.508;12.232;2023-01-01T02:52:17;12.20;99.90
14008;DHT22;61651;45.508;12.232;2023-01-01T02:55:31;12.30;99.90
14008;DHT22;61651;45.508;12.232;2023-01-01T02:58:41;12.20;99.90
14008;DHT22;61651;45.508;12.232;2023-01-01T03:02:10;12.30;99.90
14008;DHT22;61651;45.508;12.232;2023-01-01T03:05:17;12.40;99.90
14008;DHT22;61651;45.508;12.232;2023-01-01T03:08:26;12.40;99.90
14008;DHT22;61651;45.508;12.232;2023-01-01T03:11:36;12.50;99.90
14008;DHT22;61651;45.508;12.232;2023-01-01T03:14:44;12.40;99.90
14008;DHT22;61651;45.508;12.232;2023-01-01T03:17:56;12.30;99.90
14008;DHT22;61651;45.508;12.232;2023-01-01T03:21:02;12.30;99.90
14008;DHT22;61651;45.508;12.232;2023-01-01T03:24:06;12.30;99.90
14008;DHT22;61651;45.508;12.232;2023-01-01T03:27:14;12.40;99.90
14008;DHT22;61651;45.508;12.232;2023-01-01T03:30:19;12.50;99.90
14008;DHT22;61651;45.508;12.232;2023-01-01T03:33:26;12.70;99.90
14008;DHT22;61651;45.508;12.232;2023-01-01T03:36:32;12.50;99.90
14008;DHT22;61651;45.508;12.232;2023-01-01T03:39:39;12.40;99.90
14008;DHT22;61651;45.508;12.232;2023-01-01T03:42:45;12.40;99.90
14008;DHT22;61651;45.508;12.232;2023-01-01T03:45:52;12.30;99.90
14008;DHT22;61651;45.508;12.232;2023-01-01T03:48:56;12.30;99.90
14008;DHT22;61651;45.508;12.232;2023-01-01T03:52:10;12.40;99.90
14008;DHT22;61651;45.508;12.232;2023-01-01T03:55:18;12.50;99.90
14008;DHT22;61651;45.508;12.232;2023-01-01T03:58:27;12.40;99.90
14008;DHT22;61651;45.508;12.232;2023-01-01T04:01:36;12.10;99.90
14008;DHT22;61651;45.508;12.232;2023-01-01T04:04:42;12.00;99.90
14008;DHT22;61651;45.508;12.232;2023-01-01T04:07:44;12.00;99.90
14008;DHT22;61651;45.508;12.232;2023-01-01T04:10:50;12.10;99.90
14008;DHT22;61651;45.508;12.232;2023-01-01T04:13:52;12.20;99.90
14008;DHT22;61651;45.508;12.232;2023-01-01T04:16:54;12.40;99.90
14008;DHT22;61651;45.508;12.232;2023-01-01T04:19:58;12.50;99.90
14008;DHT22;61651;45.508;12.232;2023-01-01T04:23:01;12.50;99.90
14008;DHT22;61651;45.508;12.232;2023-01-01T04:26:03;12.50;99.90
14008;DHT22;61651;45.508;12.232;2023-01-01T04:29:05;12.40;99.90
14008;DHT22;61651;45.508;12.232;2023-01-01T04:32:07;12.50;99.90
14008;DHT22;61651;45.508;12.232;2023-01-01T04:35:12;12.60;99.90
14008;DHT22;61651;45.508;12.232;2023-01-01T04:38:14;12.80;99.90
14008;DHT22;61651;45.508;12.232;2023-01-01T04:41:16;12.70;99.90
14008;DHT22;61651;45.508;12.232;2023-01-01T04:44:18;12.80;99.90
14008;DHT22;61651;45.508;12.232;2023-01-01T04:47:20;12.80;99.90
14008;DHT22;61651;45.508;12.232;2023-01-01T04:50:23;12.80;99.90
14008;DHT22;61651;45.508;12.232;2023-01-01T04:53:28;12.80;99.90
14008;DHT22;61651;45.508;12.232;2023-01-01T04:56:30;12.90;99.90
14008;DHT22;61651;45.508;12.232;2023-01-01T04:59:32;12.80;99.90
14008;DHT22;61651;45.508;12.232;2023-01-01T05:02:34;12.70;99.90
14008;DHT22;61651;45.508;12.232;2023-01-01T05:05:37;12.60;99.90
14008;DHT22;61651;45.508;12.232;2023-01-01T05:08:41;12.60;99.90
14008;DHT22;61651;45.508;12.232;2023-01-01T05:11:43;12.40;99.90
14008;DHT22;61651;45.508;12.232;2023-01-01T05:14:45;12.30;99.90
14008;DHT22;61651;45.508;12.232;2023-01-01T05:17:47;12.20;99.90
14008;DHT22;61651;45.508;12.232;2023-01-01T05:20:51;12.30;99.90
14008;DHT22;61651;45.508;12.232;2023-01-01T05:23:53;12.50;99.90
14008;DHT22;61651;45.508;12.232;2023-01-01T05:26:56;12.40;99.90
14008;DHT22;61651;45.508;12.232;2023-01-01T05:29:58;12.30;99.90
14008;DHT22;61651;45.508;12.232;2023-01-01T05:33:00;12.20;99.90
14008;DHT22;61651;45.508;12.232;2023-01-01T05:36:05;12.20;99.90
14008;DHT22;61651;45.508;12.232;2023-01-01T05:39:10;12.10;99.90
14008;DHT22;61651;45.508;12.232;2023-01-01T05:42:12;12.20;99.90
14008;DHT22;61651;45.508;12.232;2023-01-01T05:45:15;12.30;99.90
14008;DHT22;61651;45.508;12.232;2023-01-01T05:48:17;12.30;99.90
14008;DHT22;61651;45.508;12.232;2023-01-01T05:51:21;12.30;99.90
14008;DHT22;61651;45.508;12.232;2023-01-01T05:54:23;12.30;99.90
14008;DHT22;61651;45.508;12.232;2023-01-01T05:57:27;12.20;99.90
14008;DHT22;61651;45.508;12.232;2023-01-01T06:00:28;12.20;99.90
14008;DHT22;61651;45.508;12.232;2023-01-01T06:03:30;12.20;99.90
14008;DHT22;61651;45.508;12.232;2023-01-01T06:06:34;12.10;99.90
14008;DHT22;61651;45.508;12.232;2023-01-01T06:09:36;12.20;99.90
14008;DHT22;61651;45.508;12.232;2023-01-01T06:12:38;12.30;99.90
14008;DHT22;61651;45.508;12.232;2023-01-01T06:15:40;12.40;99.90
14008;DHT22;61651;45.508;12.232;2023-01-01T06:18:42;12.40;99.90
14008;DHT22;61651;45.508;12.232;2023-01-01T06:21:45;12.50;99.90
14008;DHT22;61651;45.508;12.232;2023-01-01T06:24:47;12.50;99.90
14008;DHT22;61651;45.508;12.232;2023-01-01T06:27:49;12.50;99.90
14008;DHT22;61651;45.508;12.232;2023-01-01T06:30:51;12.50;99.90
14008;DHT22;61651;45.508;12.232;2023-01-01T06:33:53;12.60;99.90
14008;DHT22;61651;45.508;12.232;2023-01-01T06:36:56;12.70;99.90
14008;DHT22;61651;45.508;12.232;2023-01-01T06:39:58;12.70;99.90
14008;DHT22;61651;45.508;12.232;2023-01-01T06:43:00;12.70;99.90
14008;DHT22;61651;45.508;12.232;2023-01-01T06:46:03;12.70;99.90
14008;DHT22;61651;45.508;12.232;2023-01-01T06:49:09;12.70;99.90
14008;DHT22;61651;45.508;12.232;2023-01-01T06:52:12;12.70;99.90
14008;DHT22;61651;45.508;12.232;2023-01-01T06:55:14;12.60;99.90
14008;DHT22;61651;45.508;12.232;2023-01-01T06:58:16;12.70;99.90
14008;DHT22;61651;45.508;12.232;2023-01-01T07:01:20;12.70;99.90
14008;DHT22;61651;45.508;12.232;2023-01-01T07:04:22;12.60;99.90
14008;DHT22;61651;45.508;12.232;2023-01-01T07:07:25;12.60;99.90
14008;DHT22;61651;45.508;12.232;2023-01-01T07:10:27;12.60;99.90
14008;DHT22;61651;45.508;12.232;2023-01-01T07:13:29;12.70;99.90
14008;DHT22;61651;45.508;12.232;2023-01-01T07:16:31;12.70;99.90
14008;DHT22;61651;45.508;12.232;2023-01-01T07:19:34;12.70;99.90
14008;DHT22;61651;45.508;12.232;2023-01-01T07:22:38;12.70;99.90
14008;DHT22;61651;45.508;12.232;2023-01-01T07:25:40;12.60;99.90
14008;DHT22;61651;45.508;12.232;2023-01-01T07:28:42;12.60;99.90
14008;DHT22;61651;45.508;12.232;2023-01-01T07:31:44;12.50;99.90
14008;DHT22;61651;45.508;12.232;2023-01-01T07:34:46;12.50;99.90
14008;DHT22;61651;45.508;12.232;2023-01-01T07:37:50;12.60;99.90
14008;DHT22;61651;45.508;12.232;2023-01-01T07:40:52;12.70;99.90
14008;DHT22;61651;45.508;12.232;2023-01-01T07:43:54;12.70;99.90
14008;DHT22;61651;45.508;12.232;2023-01-01T07:47:01;12.70;99.90
14008;DHT22;61651;45.508;12.232;2023-01-01T07:50:04;12.70;99.90
14008;DHT22;61651;45.508;12.232;2023-01-01T07:53:07;12.80;99.90
14008;DHT22;61651;45.508;12.232;2023-01-01T07:56:09;12.80;99.90
14008;DHT22;61651;45.508;12.232;2023-01-01T07:59:11;12.90;99.90
14008;DHT22;61651;45.508;12.232;2023-01-01T08:02:13;12.90;99.90
14008;DHT22;61651;45.508;12.232;2023-01-01T08:05:16;12.80;99.90
14008;DHT22;61651;45.508;12.232;2023-01-01T08:08:19;12.80;99.90
14008;DHT22;61651;45.508;12.232;2023-01-01T08:11:21;12.90;99.90
14008;DHT22;61651;45.508;12.232;2023-01-01T08:14:23;12.90;99.90
14008;DHT22;61651;45.508;12.232;2023-01-01T08:17:26;12.90;99.90
14008;DHT22;61651;45.508;12.232;2023-01-01T08:20:32;12.90;99.90
14008;DHT22;61651;45.508;12.232;2023-01-01T08:23:35;13.00;99.90
14008;DHT22;61651;45.508;12.232;2023-01-01T08:26:37;13.00;99.90
14008;DHT22;61651;45.508;12.232;2023-01-01T08:29:40;13.10;99.90
14008;DHT22;61651;45.508;12.232;2023-01-01T08:32:42;13.20;99.90
14008;DHT22;61651;45.508;12.232;2023-01-01T08:35:44;13.10;99.90
14008;DHT22;61651;45.508;12.232;2023-01-01T08:38:47;13.20;99.90
14008;DHT22;61651;45.508;12.232;2023-01-01T08:41:49;13.30;99.90
14008;DHT22;61651;45.508;12.232;2023-01-01T08:44:51;13.20;99.90
14008;DHT22;61651;45.508;12.232;2023-01-01T08:47:53;13.20;99.90
14008;DHT22;61651;45.508;12.232;2023-01-01T08:50:56;13.30;99.90
14008;DHT22;61651;45.508;12.232;2023-01-01T08:54:01;13.30;99.90
14008;DHT22;61651;45.508;12.232;2023-01-01T08:57:03;13.40;99.90
14008;DHT22;61651;45.508;12.232;2023-01-01T09:00:06;13.50;99.90
14008;DHT22;61651;45.508;12.232;2023-01-01T09:03:09;13.50;99.90
14008;DHT22;61651;45.508;12.232;2023-01-01T09:06:11;13.50;99.90
14008;DHT22;61651;45.508;12.232;2023-01-01T09:09:14;13.50;99.90
14008;DHT22;61651;45.508;12.232;2023-01-01T09:12:16;13.60;99.90
14008;DHT22;61651;45.508;12.232;2023-01-01T09:15:18;13.60;99.90
14008;DHT22;61651;45.508;12.232;2023-01-01T09:18:20;13.60;99.90
14008;DHT22;61651;45.508;12.232;2023-01-01T09:21:22;13.50;99.90
14008;DHT22;61651;45.508;12.232;2023-01-01T09:24:26;13.40;99.90
14008;DHT22;61651;45.508;12.232;2023-01-01T09:27:28;13.30;99.90
14008;DHT22;61651;45.508;12.232;2023-01-01T09:30:30;13.50;99.90
14008;DHT22;61651;45.508;12.232;2023-01-01T09:33:33;13.60;99.90
14008;DHT22;61651;45.508;12.232;2023-01-01T09:36:35;13.80;99.90
14008;DHT22;61651;45.508;12.232;2023-01-01T09:39:38;14.00;99.90
14008;DHT22;61651;45.508;12.232;2023-01-01T09:42:44;14.00;99.90
14008;DHT22;61651;45.508;12.232;2023-01-01T09:45:55;14.00;99.90
14008;DHT22;61651;45.508;12.232;2023-01-01T09:49:00;14.10;99.90
14008;DHT22;61651;45.508;12.232;2023-01-01T09:52:03;14.10;99.90
14008;DHT22;61651;45.508;12.232;2023-01-01T09:55:14;14.10;99.90
14008;DHT22;61651;45.508;12.232;2023-01-01T09:58:21;14.00;99.90
14008;DHT22;61651;45.508;12.232;2023-01-01T10:01:33;14.10;99.90
14008;DHT22;61651;45.508;12.232;2023-01-01T10:04:52;14.30;99.90
14008;DHT22;61651;45.508;12.232;2023-01-01T10:08:02;14.40;99.90
14008;DHT22;61651;45.508;12.232;2023-01-01T10:11:14;14.40;99.90
14008;DHT22;61651;45.508;12.232;2023-01-01T10:14:22;14.50;99.90
14008;DHT22;61651;45.508;12.232;2023-01-01T10:17:30;14.50;99.90
14008;DHT22;61651;45.508;12.232;2023-01-01T10:20:37;14.40;99.90
14008;DHT22;61651;45.508;12.232;2023-01-01T10:23:42;14.40;99.90
14008;DHT22;61651;45.508;12.232;2023-01-01T10:26:47;14.50;99.90
14008;DHT22;61651;45.508;12.232;2023-01-01T10:29:51;14.50;99.90
14008;DHT22;61651;45.508;12.232;2023-01-01T10:32:54;14.50;99.90
14008;DHT22;61651;45.508;12.232;2023-01-01T10:35:56;14.50;99.90
14008;DHT22;61651;45.508;12.232;2023-01-01T10:38:58;14.50;99.90
14008;DHT22;61651;45.508;12.232;2023-01-01T10:42:02;14.50;99.90
14008;DHT22;61651;45.508;12.232;2023-01-01T10:45:05;14.50;99.90
14008;DHT22;61651;45.508;12.232;2023-01-01T10:48:12;14.60;99.90
14008;DHT22;61651;45.508;12.232;2023-01-01T10:51:16;14.70;99.90
14008;DHT22;61651;45.508;12.232;2023-01-01T10:54:32;14.60;99.90
14008;DHT22;61651;45.508;12.232;2023-01-01T10:57:37;14.70;99.90
14008;DHT22;61651;45.508;12.232;2023-01-01T11:00:39;14.70;99.90
14008;DHT22;61651;45.508;12.232;2023-01-01T11:03:56;14.70;99.90
14008;DHT22;61651;45.508;12.232;2023-01-01T11:06:59;14.80;99.90
14008;DHT22;61651;45.508;12.232;2023-01-01T11:10:03;14.90;99.90
14008;DHT22;61651;45.508;12.232;2023-01-01T11:13:16;14.90;99.90
14008;DHT22;61651;45.508;12.232;2023-01-01T11:16:19;15.00;99.90
14008;DHT22;61651;45.508;12.232;2023-01-01T11:19:27;14.90;99.90
14008;DHT22;61651;45.508;12.232;2023-01-01T11:22:38;14.70;99.90
14008;DHT22;61651;45.508;12.232;2023-01-01T11:25:59;14.80;99.90
14008;DHT22;61651;45.508;12.232;2023-01-01T11:29:17;14.60;99.90
14008;DHT22;61651;45.508;12.232;2023-01-01T11:32:21;14.60;99.90
14008;DHT22;61651;45.508;12.232;2023-01-01T11:35:27;14.60;99.90
14008;DHT22;61651;45.508;12.232;2023-01-01T11:38:30;14.70;99.90
14008;DHT22;61651;45.508;12.232;2023-01-01T11:41:40;14.90;99.90
14008;DHT22;61651;45.508;12.232;2023-01-01T11:44:46;14.90;99.90
14008;DHT22;61651;45.508;12.232;2023-01-01T11:47:52;15.00;99.90
14008;DHT22;61651;45.508;12.232;2023-01-01T11:50:59;15.10;99.90
14008;DHT22;61651;45.508;12.232;2023-01-01T11:54:10;15.20;99.90
14008;DHT22;61651;45.508;12.232;2023-01-01T11:57:16;15.30;99.90
14008;DHT22;61651;45.508;12.232;2023-01-01T12:00:20;15.20;99.90
14008;DHT22;61651;45.508;12.232;2023-01-01T12:03:25;15.30;99.90
14008;DHT22;61651;45.508;12.232;2023-01-01T12:06:30;15.20;99.90
14008;DHT22;61651;45.508;12.232;2023-01-01T12:09:39;15.30;99.90
14008;DHT22;61651;45.508;12.232;2023-01-01T12:12:45;15.40;99.90
14008;DHT22;61651;45.508;12.232;2023-01-01T12:15:53;15.50;99.90
14008;DHT22;61651;45.508;12.232;2023-01-01T12:19:03;15.40;99.90
14008;DHT22;61651;45.508;12.232;2023-01-01T12:22:15;15.20;99.90
14008;DHT22;61651;45.508;12.232;2023-01-01T12:25:18;15.30;99.90
14008;DHT22;61651;45.508;12.232;2023-01-01T12:28:29;15.40;99.90
14008;DHT22;61651;45.508;12.232;2023-01-01T12:31:41;15.40;99.90
14008;DHT22;61651;45.508;12.232;2023-01-01T12:34:52;15.30;99.90
14008;DHT22;61651;45.508;12.232;2023-01-01T12:38:03;15.00;99.90
14008;DHT22;61651;45.508;12.232;2023-01-01T12:41:11;15.20;99.90
14008;DHT22;61651;45.508;12.232;2023-01-01T12:44:18;15.50;99.90
14008;DHT22;61651;45.508;12.232;2023-01-01T12:47:33;15.70;99.90
14008;DHT22;61651;45.508;12.232;2023-01-01T12:50:42;15.60;99.90
14008;DHT22;61651;45.508;12.232;2023-01-01T12:53:52;15.30;99.90
14008;DHT22;61651;45.508;12.232;2023-01-01T12:57:02;15.20;99.90
14008;DHT22;61651;45.508;12.232;2023-01-01T13:00:13;15.30;99.90
14008;DHT22;61651;45.508;12.232;2023-01-01T13:03:20;15.40;99.90
14008;DHT22;61651;45.508;12.232;2023-01-01T13:06:26;15.50;99.90
14008;DHT22;61651;45.508;12.232;2023-01-01T13:09:33;15.50;99.90
14008;DHT22;61651;45.508;12.232;2023-01-01T13:12:36;15.40;99.90
14008;DHT22;61651;45.508;12.232;2023-01-01T13:15:52;15.50;99.90
14008;DHT22;61651;45.508;12.232;2023-01-01T13:18:56;15.60;99.90
14008;DHT22;61651;45.508;12.232;2023-01-01T13:21:59;15.60;99.90
14008;DHT22;61651;45.508;12.232;2023-01-01T13:25:24;15.70;99.90
14008;DHT22;61651;45.508;12.232;2023-01-01T13:28:26;15.80;99.90
14008;DHT22;61651;45.508;12.232;2023-01-01T13:32:00;15.80;99.90
14008;DHT22;61651;45.508;12.232;2023-01-01T13:35:13;15.70;99.90
14008;DHT22;61651;45.508;12.232;2023-01-01T13:38:45;15.70;99.90
14008;DHT22;61651;45.508;12.232;2023-01-01T13:41:49;15.70;99.90
14008;DHT22;61651;45.508;12.232;2023-01-01T13:44:51;15.60;99.90
14008;DHT22;61651;45.508;12.232;2023-01-01T13:48:14;15.60;99.90
14008;DHT22;61651;45.508;12.232;2023-01-01T14:02:02;15.00;99.90
14008;DHT22;61651;45.508;12.232;2023-01-01T14:05:16;14.90;99.90
14008;DHT22;61651;45.508;12.232;2023-01-01T14:08:27;15.00;99.90
14008;DHT22;61651;45.508;12.232;2023-01-01T14:11:29;14.70;99.90
14008;DHT22;61651;45.508;12.232;2023-01-01T14:14:34;14.80;99.90
14008;DHT22;61651;45.508;12.232;2023-01-01T14:17:36;15.10;99.90
14008;DHT22;61651;45.508;12.232;2023-01-01T14:20:40;15.20;99.90
14008;DHT22;61651;45.508;12.232;2023-01-01T14:23:45;15.30;99.90
14008;DHT22;61651;45.508;12.232;2023-01-01T14:26:48;15.30;99.90
14008;DHT22;61651;45.508;12.232;2023-01-01T14:29:52;15.30;99.90
14008;DHT22;61651;45.508;12.232;2023-01-01T14:32:55;15.30;99.90
14008;DHT22;61651;45.508;12.232;2023-01-01T14:35:59;15.20;99.90
14008;DHT22;61651;45.508;12.232;2023-01-01T14:39:01;15.20;99.90
14008;DHT22;61651;45.508;12.232;2023-01-01T14:42:05;15.20;99.90
14008;DHT22;61651;45.508;12.232;2023-01-01T14:45:14;15.10;99.90
14008;DHT22;61651;45.508;12.232;2023-01-01T14:48:18;15.10;99.90
14008;DHT22;61651;45.508;12.232;2023-01-01T14:51:22;15.10;99.90
14008;DHT22;61651;45.508;12.232;2023-01-01T14:54:29;14.90;99.90
14008;DHT22;61651;45.508;12.232;2023-01-01T14:57:34;14.80;99.90
14008;DHT22;61651;45.508;12.232;2023-01-01T15:00:37;14.90;99.90
14008;DHT22;61651;45.508;12.232;2023-01-01T15:03:39;14.90;99.90
14008;DHT22;61651;45.508;12.232;2023-01-01T15:06:41;14.90;99.90
14008;DHT22;61651;45.508;12.232;2023-01-01T15:09:43;15.00;99.90
14008;DHT22;61651;45.508;12.232;2023-01-01T15:12:45;15.00;99.90
14008;DHT22;61651;45.508;12.232;2023-01-01T15:15:50;15.00;99.90
14008;DHT22;61651;45.508;12.232;2023-01-01T15:18:52;15.00;99.90
14008;DHT22;61651;45.508;12.232;2023-01-01T15:21:57;15.00;99.90
14008;DHT22;61651;45.508;12.232;2023-01-01T15:25:00;15.00;99.90
14008;DHT22;61651;45.508;12.232;2023-01-01T15:28:02;15.00;99.90
14008;DHT22;61651;45.508;12.232;2023-01-01T15:31:07;15.00;99.90
14008;DHT22;61651;45.508;12.232;2023-01-01T15:34:21;14.90;99.90
14008;DHT22;61651;45.508;12.232;2023-01-01T15:37:30;14.90;99.90
14008;DHT22;61651;45.508;12.232;2023-01-01T15:40:34;14.90;99.90
14008;DHT22;61651;45.508;12.232;2023-01-01T15:43:36;14.80;99.90
14008;DHT22;61651;45.508;12.232;2023-01-01T15:46:44;14.80;99.90
14008;DHT22;61651;45.508;12.232;2023-01-01T15:49:46;14.80;99.90
14008;DHT22;61651;45.508;12.232;2023-01-01T15:52:51;14.80;99.90
14008;DHT22;61651;45.508;12.232;2023-01-01T15:55:55;14.80;99.90
14008;DHT22;61651;45.508;12.232;2023-01-01T15:58:59;14.70;99.90
14008;DHT22;61651;45.508;12.232;2023-01-01T16:02:11;14.70;99.90
14008;DHT22;61651;45.508;12.232;2023-01-01T16:05:14;14.70;99.90
14008;DHT22;61651;45.508;12.232;2023-01-01T16:08:18;14.60;99.90
14008;DHT22;61651;45.508;12.232;2023-01-01T16:11:20;14.60;99.90
14008;DHT22;61651;45.508;12.232;2023-01-01T16:14:22;14.60;99.90
14008;DHT22;61651;45.508;12.232;2023-01-01T16:17:26;14.50;99.90
14008;DHT22;61651;45.508;12.232;2023-01-01T16:20:28;14.50;99.90
14008;DHT22;61651;45.508;12.232;2023-01-01T16:23:31;14.50;99.90
14008;DHT22;61651;45.508;12.232;2023-01-01T16:26:33;14.50;99.90
14008;DHT22;61651;45.508;12.232;2023-01-01T16:29:35;14.40;99.90
14008;DHT22;61651;45.508;12.232;2023-01-01T16:32:38;14.40;99.90
14008;DHT22;61651;45.508;12.232;2023-01-01T16:35:41;14.40;99.90
14008;DHT22;61651;45.508;12.232;2023-01-01T16:38:43;14.40;99.90
14008;DHT22;61651;45.508;12.232;2023-01-01T16:41:44;14.30;99.90
14008;DHT22;61651;45.508;12.232;2023-01-01T16:44:46;14.30;99.90
14008;DHT22;61651;45.508;12.232;2023-01-01T16:47:50;14.30;99.90
14008;DHT22;61651;45.508;12.232;2023-01-01T16:50:52;14.30;99.90
14008;DHT22;61651;45.508;12.232;2023-01-01T16:53:54;14.30;99.90
14008;DHT22;61651;45.508;12.232;2023-01-01T16:56:56;14.30;99.90
14008;DHT22;61651;45.508;12.232;2023-01-01T16:59:58;14.30;99.90
14008;DHT22;61651;45.508;12.232;2023-01-01T17:03:02;14.30;99.90
14008;DHT22;61651;45.508;12.232;2023-01-01T17:06:05;14.20;99.90
14008;DHT22;61651;45.508;12.232;2023-01-01T17:09:07;14.20;99.90
14008;DHT22;61651;45.508;12.232;2023-01-01T17:12:09;14.20;99.90
14008;DHT22;61651;45.508;12.232;2023-01-01T17:15:11;14.20;99.90
14008;DHT22;61651;45.508;12.232;2023-01-01T17:18:14;14.20;99.90
14008;DHT22;61651;45.508;12.232;2023-01-01T17:21:17;14.20;99.90
14008;DHT22;61651;45.508;12.232;2023-01-01T17:24:19;14.20;99.90
14008;DHT22;61651;45.508;12.232;2023-01-01T17:27:21;14.20;99.90
14008;DHT22;61651;45.508;12.232;2023-01-01T17:30:23;14.20;99.90
14008;DHT22;61651;45.508;12.232;2023-01-01T17:33:27;14.20;99.90
14008;DHT22;61651;45.508;12.232;2023-01-01T17:36:29;14.20;99.90
14008;DHT22;61651;45.508;12.232;2023-01-01T17:39:31;14.20;99.90
14008;DHT22;61651;45.508;12.232;2023-01-01T17:42:33;14.20;99.90
14008;DHT22;61651;45.508;12.232;2023-01-01T17:45:36;14.20;99.90
14008;DHT22;61651;45.508;12.232;2023-01-01T17:48:39;14.20;99.90
14008;DHT22;61651;45.508;12.232;2023-01-01T17:51:42;14.10;99.90
14008;DHT22;61651;45.508;12.232;2023-01-01T17:54:44;14.10;99.90
14008;DHT22;61651;45.508;12.232;2023-01-01T17:57:46;14.10;99.90
14008;DHT22;61651;45.508;12.232;2023-01-01T18:00:48;14.00;99.90
14008;DHT22;61651;45.508;12.232;2023-01-01T18:03:52;14.00;99.90
14008;DHT22;61651;45.508;12.232;2023-01-01T18:06:54;14.00;99.90
14008;DHT22;61651;45.508;12.232;2023-01-01T18:09:57;13.90;99.90
14008;DHT22;61651;45.508;12.232;2023-01-01T18:12:59;13.90;99.90
14008;DHT22;61651;45.508;12.232;2023-01-01T18:16:01;13.90;99.90
14008;DHT22;61651;45.508;12.232;2023-01-01T18:19:05;13.90;99.90
14008;DHT22;61651;45.508;12.232;2023-01-01T18:22:07;13.70;99.90
14008;DHT22;61651;45.508;12.232;2023-01-01T18:25:09;13.50;99.90
14008;DHT22;61651;45.508;12.232;2023-01-01T18:28:11;13.60;99.90
14008;DHT22;61651;45.508;12.232;2023-01-01T18:31:14;13.60;99.90
14008;DHT22;61651;45.508;12.232;2023-01-01T18:34:18;13.70;99.90
14008;DHT22;61651;45.508;12.232;2023-01-01T18:37:20;13.60;99.90
14008;DHT22;61651;45.508;12.232;2023-01-01T18:40:23;13.60;99.90
14008;DHT22;61651;45.508;12.232;2023-01-01T18:43:26;13.60;99.90
14008;DHT22;61651;45.508;12.232;2023-01-01T18:46:28;13.60;99.90
14008;DHT22;61651;45.508;12.232;2023-01-01T18:49:32;13.70;99.90
14008;DHT22;61651;45.508;12.232;2023-01-01T18:52:34;13.60;99.90
14008;DHT22;61651;45.508;12.232;2023-01-01T18:55:36;13.60;99.90
14008;DHT22;61651;45.508;12.232;2023-01-01T18:58:39;13.60;99.90
14008;DHT22;61651;45.508;12.232;2023-01-01T19:01:42;13.50;99.90
14008;DHT22;61651;45.508;12.232;2023-01-01T19:04:46;13.50;99.90
14008;DHT22;61651;45.508;12.232;2023-01-01T19:07:50;13.50;99.90
14008;DHT22;61651;45.508;12.232;2023-01-01T19:10:56;13.50;99.90
14008;DHT22;61651;45.508;12.232;2023-01-01T19:14:04;13.40;99.90
14008;DHT22;61651;45.508;12.232;2023-01-01T19:17:12;13.30;99.90
14008;DHT22;61651;45.508;12.232;2023-01-01T19:20:18;13.30;99.90